sensor_id;sensor_type;location;lat;lon;timestamp;P1;durP1;ratioP1;P2;durP2;ratioP2
63818;SDS011;49970;54.976;73.248;2023-12-22T00:00:16;55.67;;;22.02;;
63818;SDS011;49970;54.976;73.248;2023-12-22T00:03:45;50.15;;;22.05;;
63818;SDS011;49970;54.976;73.248;2023-12-22T00:06:12;53.55;;;22.25;;
63818;SDS011;49970;54.976;73.248;2023-12-22T00:08:38;62.38;;;24.13;;
63818;SDS011;49970;54.976;73.248;2023-12-22T00:11:04;54.35;;;24.55;;
63818;SDS011;49970;54.976;73.248;2023-12-22T00:13:30;49.65;;;22.90;;
63818;SDS011;49970;54.976;73.248;2023-12-22T00:15:59;51.97;;;23.85;;
63818;SDS011;49970;54.976;73.248;2023-12-22T00:18:27;55.33;;;24.33;;
63818;SDS011;49970;54.976;73.248;2023-12-22T00:20:53;55.13;;;27.05;;
63818;SDS011;49970;54.976;73.248;2023-12-22T00:23:19;48.80;;;24.70;;
63818;SDS011;49970;54.976;73.248;2023-12-22T00:25:45;44.50;;;20.23;;
63818;SDS011;49970;54.976;73.248;2023-12-22T00:28:12;35.72;;;18.63;;
63818;SDS011;49970;54.976;73.248;2023-12-22T00:31:21;38.00;;;17.65;;
63818;SDS011;49970;54.976;73.248;2023-12-22T00:33:53;43.03;;;21.00;;
63818;SDS011;49970;54.976;73.248;2023-12-22T00:36:21;40.72;;;20.30;;
63818;SDS011;49970;54.976;73.248;2023-12-22T00:38:52;43.13;;;19.17;;
63818;SDS011;49970;54.976;73.248;2023-12-22T00:41:23;49.85;;;20.25;;
63818;SDS011;49970;54.976;73.248;2023-12-22T00:44:55;41.17;;;19.00;;
63818;SDS011;49970;54.976;73.248;2023-12-22T00:47:21;39.92;;;20.05;;
63818;SDS011;49970;54.976;73.248;2023-12-22T00:49:47;39.10;;;20.17;;
63818;SDS011;49970;54.976;73.248;2023-12-22T00:52:14;45.45;;;22.05;;
63818;SDS011;49970;54.976;73.248;2023-12-22T00:54:40;51.55;;;23.52;;
63818;SDS011;49970;54.976;73.248;2023-12-22T00:57:06;58.60;;;23.58;;
63818;SDS011;49970;54.976;73.248;2023-12-22T00:59:32;66.07;;;29.65;;
63818;SDS011;49970;54.976;73.248;2023-12-22T01:01:59;65.65;;;28.33;;
63818;SDS011;49970;54.976;73.248;2023-12-22T01:04:25;63.45;;;29.50;;
63818;SDS011;49970;54.976;73.248;2023-12-22T01:07:09;65.68;;;31.95;;
63818;SDS011;49970;54.976;73.248;2023-12-22T01:09:35;69.32;;;31.67;;
63818;SDS011;49970;54.976;73.248;2023-12-22T01:12:05;86.68;;;35.53;;
63818;SDS011;49970;54.976;73.248;2023-12-22T01:14:33;70.53;;;35.35;;
63818;SDS011;49970;54.976;73.248;2023-12-22T01:16:59;72.68;;;35.50;;
63818;SDS011;49970;54.976;73.248;2023-12-22T01:19:26;76.55;;;35.90;;
63818;SDS011;49970;54.976;73.248;2023-12-22T01:21:52;75.47;;;36.90;;
63818;SDS011;49970;54.976;73.248;2023-12-22T01:24:18;73.63;;;32.90;;
63818;SDS011;49970;54.976;73.248;2023-12-22T01:26:45;66.18;;;32.55;;
63818;SDS011;49970;54.976;73.248;2023-12-22T01:29:11;71.43;;;33.75;;
63818;SDS011;49970;54.976;73.248;2023-12-22T01:32:42;70.32;;;34.13;;
63818;SDS011;49970;54.976;73.248;2023-12-22T01:36:14;70.93;;;33.33;;
63818;SDS011;49970;54.976;73.248;2023-12-22T01:39:45;77.50;;;36.42;;
63818;SDS011;49970;54.976;73.248;2023-12-22T01:42:11;72.53;;;36.40;;
63818;SDS011;49970;54.976;73.248;2023-12-22T01:44:37;76.05;;;34.97;;
63818;SDS011;49970;54.976;73.248;2023-12-22T01:47:04;62.47;;;32.38;;
63818;SDS011;49970;54.976;73.248;2023-12-22T01:49:30;67.38;;;33.97;;
63818;SDS011;49970;54.976;73.248;2023-12-22T01:51:56;68.22;;;33.03;;
63818;SDS011;49970;54.976;73.248;2023-12-22T01:54:23;67.70;;;34.25;;
63818;SDS011;49970;54.976;73.248;2023-12-22T01:56:50;59.85;;;33.20;;
63818;SDS011;49970;54.976;73.248;2023-12-22T01:59:16;54.30;;;30.17;;
63818;SDS011;49970;54.976;73.248;2023-12-22T02:01:43;53.45;;;30.85;;
63818;SDS011;49970;54.976;73.248;2023-12-22T02:04:11;52.42;;;30.63;;
63818;SDS011;49970;54.976;73.248;2023-12-22T02:06:39;43.72;;;26.23;;
63818;SDS011;49970;54.976;73.248;2023-12-22T02:10:10;56.15;;;29.77;;
63818;SDS011;49970;54.976;73.248;2023-12-22T02:13:42;48.05;;;27.33;;
63818;SDS011;49970;54.976;73.248;2023-12-22T02:20:18;47.40;;;28.00;;
63818;SDS011;49970;54.976;73.248;2023-12-22T02:22:50;48.28;;;27.33;;
63818;SDS011;49970;54.976;73.248;2023-12-22T02:25:18;49.88;;;27.23;;
63818;SDS011;49970;54.976;73.248;2023-12-22T02:27:45;49.00;;;27.13;;
63818;SDS011;49970;54.976;73.248;2023-12-22T02:30:15;46.25;;;25.80;;
63818;SDS011;49970;54.976;73.248;2023-12-22T02:33:00;47.58;;;24.65;;
63818;SDS011;49970;54.976;73.248;2023-12-22T02:35:40;38.53;;;24.05;;
63818;SDS011;49970;54.976;73.248;2023-12-22T02:38:08;44.50;;;25.42;;
63818;SDS011;49970;54.976;73.248;2023-12-22T02:40:37;40.05;;;24.88;;
63818;SDS011;49970;54.976;73.248;2023-12-22T02:43:05;41.80;;;26.05;;
63818;SDS011;49970;54.976;73.248;2023-12-22T02:45:32;45.28;;;25.95;;
63818;SDS011;49970;54.976;73.248;2023-12-22T02:47:58;44.55;;;26.75;;
63818;SDS011;49970;54.976;73.248;2023-12-22T02:50:25;44.30;;;26.90;;
63818;SDS011;49970;54.976;73.248;2023-12-22T02:52:51;50.80;;;27.95;;
63818;SDS011;49970;54.976;73.248;2023-12-22T02:55:17;43.50;;;26.10;;
63818;SDS011;49970;54.976;73.248;2023-12-22T02:57:44;43.38;;;27.35;;
63818;SDS011;49970;54.976;73.248;2023-12-22T03:00:11;44.22;;;25.85;;
63818;SDS011;49970;54.976;73.248;2023-12-22T03:02:37;42.25;;;24.30;;
63818;SDS011;49970;54.976;73.248;2023-12-22T03:05:04;42.60;;;24.70;;
63818;SDS011;49970;54.976;73.248;2023-12-22T03:07:30;41.58;;;22.10;;
63818;SDS011;49970;54.976;73.248;2023-12-22T03:09:57;38.55;;;23.45;;
63818;SDS011;49970;54.976;73.248;2023-12-22T03:12:23;39.58;;;23.13;;
63818;SDS011;49970;54.976;73.248;2023-12-22T03:14:49;39.78;;;25.25;;
63818;SDS011;49970;54.976;73.248;2023-12-22T03:17:15;41.28;;;25.80;;
63818;SDS011;49970;54.976;73.248;2023-12-22T03:19:42;49.92;;;28.45;;
63818;SDS011;49970;54.976;73.248;2023-12-22T03:22:08;50.03;;;29.25;;
63818;SDS011;49970;54.976;73.248;2023-12-22T03:24:35;50.45;;;27.88;;
63818;SDS011;49970;54.976;73.248;2023-12-22T03:27:02;52.88;;;30.60;;
63818;SDS011;49970;54.976;73.248;2023-12-22T03:29:29;52.63;;;28.83;;
63818;SDS011;49970;54.976;73.248;2023-12-22T03:31:55;50.65;;;29.48;;
63818;SDS011;49970;54.976;73.248;2023-12-22T03:34:21;47.72;;;28.70;;
63818;SDS011;49970;54.976;73.248;2023-12-22T03:36:47;46.13;;;27.95;;
63818;SDS011;49970;54.976;73.248;2023-12-22T03:39:15;52.22;;;29.10;;
63818;SDS011;49970;54.976;73.248;2023-12-22T03:41:41;52.58;;;27.58;;
63818;SDS011;49970;54.976;73.248;2023-12-22T03:44:07;56.35;;;31.73;;
63818;SDS011;49970;54.976;73.248;2023-12-22T03:46:34;57.63;;;31.05;;
63818;SDS011;49970;54.976;73.248;2023-12-22T03:49:00;55.53;;;30.88;;
63818;SDS011;49970;54.976;73.248;2023-12-22T03:51:26;60.08;;;31.75;;
63818;SDS011;49970;54.976;73.248;2023-12-22T03:53:53;63.40;;;32.78;;
63818;SDS011;49970;54.976;73.248;2023-12-22T03:56:19;55.22;;;33.20;;
63818;SDS011;49970;54.976;73.248;2023-12-22T03:58:45;62.10;;;32.78;;
63818;SDS011;49970;54.976;73.248;2023-12-22T04:01:13;68.85;;;34.22;;
63818;SDS011;49970;54.976;73.248;2023-12-22T04:03:40;65.93;;;34.33;;
63818;SDS011;49970;54.976;73.248;2023-12-22T04:06:06;77.45;;;35.38;;
63818;SDS011;49970;54.976;73.248;2023-12-22T04:08:33;66.05;;;34.88;;
63818;SDS011;49970;54.976;73.248;2023-12-22T04:10:59;68.15;;;37.80;;
63818;SDS011;49970;54.976;73.248;2023-12-22T04:13:25;63.58;;;34.33;;
63818;SDS011;49970;54.976;73.248;2023-12-22T04:15:51;61.20;;;32.70;;
63818;SDS011;49970;54.976;73.248;2023-12-22T04:18:18;53.38;;;27.70;;
63818;SDS011;49970;54.976;73.248;2023-12-22T04:20:44;53.13;;;27.98;;
63818;SDS011;49970;54.976;73.248;2023-12-22T04:23:10;45.95;;;27.35;;
63818;SDS011;49970;54.976;73.248;2023-12-22T04:25:36;50.95;;;27.63;;
63818;SDS011;49970;54.976;73.248;2023-12-22T04:28:03;63.60;;;27.73;;
63818;SDS011;49970;54.976;73.248;2023-12-22T04:30:29;52.97;;;26.75;;
63818;SDS011;49970;54.976;73.248;2023-12-22T04:32:55;46.88;;;25.83;;
63818;SDS011;49970;54.976;73.248;2023-12-22T04:35:22;45.85;;;25.00;;
63818;SDS011;49970;54.976;73.248;2023-12-22T04:37:48;47.60;;;24.52;;
63818;SDS011;49970;54.976;73.248;2023-12-22T04:40:14;46.97;;;25.02;;
63818;SDS011;49970;54.976;73.248;2023-12-22T04:42:41;45.08;;;25.85;;
63818;SDS011;49970;54.976;73.248;2023-12-22T04:45:07;49.85;;;27.58;;
63818;SDS011;49970;54.976;73.248;2023-12-22T04:47:34;43.00;;;26.35;;
63818;SDS011;49970;54.976;73.248;2023-12-22T04:50:00;40.85;;;25.95;;
63818;SDS011;49970;54.976;73.248;2023-12-22T04:52:26;40.05;;;25.27;;
63818;SDS011;49970;54.976;73.248;2023-12-22T04:54:54;41.80;;;26.10;;
63818;SDS011;49970;54.976;73.248;2023-12-22T04:57:20;40.20;;;23.77;;
63818;SDS011;49970;54.976;73.248;2023-12-22T04:59:47;34.10;;;21.83;;
63818;SDS011;49970;54.976;73.248;2023-12-22T05:02:43;29.45;;;18.17;;
63818;SDS011;49970;54.976;73.248;2023-12-22T05:05:10;29.48;;;18.52;;
63818;SDS011;49970;54.976;73.248;2023-12-22T05:07:37;31.30;;;17.20;;
63818;SDS011;49970;54.976;73.248;2023-12-22T05:10:04;23.33;;;15.05;;
63818;SDS011;49970;54.976;73.248;2023-12-22T05:12:30;25.60;;;15.65;;
63818;SDS011;49970;54.976;73.248;2023-12-22T05:14:56;18.83;;;15.32;;
63818;SDS011;49970;54.976;73.248;2023-12-22T05:17:23;19.83;;;14.70;;
63818;SDS011;49970;54.976;73.248;2023-12-22T05:19:49;15.95;;;12.07;;
63818;SDS011;49970;54.976;73.248;2023-12-22T05:22:15;15.32;;;12.90;;
63818;SDS011;49970;54.976;73.248;2023-12-22T05:24:41;13.65;;;10.27;;
63818;SDS011;49970;54.976;73.248;2023-12-22T05:27:08;13.43;;;10.60;;
63818;SDS011;49970;54.976;73.248;2023-12-22T05:29:34;10.93;;;9.75;;
63818;SDS011;49970;54.976;73.248;2023-12-22T05:32:01;14.15;;;8.68;;
63818;SDS011;49970;54.976;73.248;2023-12-22T05:34:27;10.35;;;9.25;;
63818;SDS011;49970;54.976;73.248;2023-12-22T05:36:56;9.10;;;8.15;;
63818;SDS011;49970;54.976;73.248;2023-12-22T05:39:22;8.52;;;7.70;;
63818;SDS011;49970;54.976;73.248;2023-12-22T05:41:48;8.13;;;7.43;;
63818;SDS011;49970;54.976;73.248;2023-12-22T05:44:15;7.68;;;6.97;;
63818;SDS011;49970;54.976;73.248;2023-12-22T05:46:41;7.18;;;6.55;;
63818;SDS011;49970;54.976;73.248;2023-12-22T05:49:07;6.97;;;6.38;;
63818;SDS011;49970;54.976;73.248;2023-12-22T05:51:39;6.95;;;5.82;;
63818;SDS011;49970;54.976;73.248;2023-12-22T05:54:09;8.07;;;6.32;;
63818;SDS011;49970;54.976;73.248;2023-12-22T05:56:38;6.85;;;6.22;;
63818;SDS011;49970;54.976;73.248;2023-12-22T05:59:04;6.60;;;5.75;;
63818;SDS011;49970;54.976;73.248;2023-12-22T06:01:31;6.10;;;5.50;;
63818;SDS011;49970;54.976;73.248;2023-12-22T06:04:13;6.03;;;5.53;;
63818;SDS011;49970;54.976;73.248;2023-12-22T06:06:39;8.07;;;5.47;;
63818;SDS011;49970;54.976;73.248;2023-12-22T06:09:05;5.35;;;4.90;;
63818;SDS011;49970;54.976;73.248;2023-12-22T06:11:31;4.80;;;4.50;;
63818;SDS011;49970;54.976;73.248;2023-12-22T06:13:58;5.15;;;4.35;;
63818;SDS011;49970;54.976;73.248;2023-12-22T06:16:24;5.18;;;4.68;;
63818;SDS011;49970;54.976;73.248;2023-12-22T06:18:50;5.82;;;4.05;;
63818;SDS011;49970;54.976;73.248;2023-12-22T06:21:16;4.43;;;4.00;;
63818;SDS011;49970;54.976;73.248;2023-12-22T06:23:43;4.18;;;3.90;;
63818;SDS011;49970;54.976;73.248;2023-12-22T06:26:10;6.07;;;4.15;;
63818;SDS011;49970;54.976;73.248;2023-12-22T06:28:37;4.47;;;4.10;;
63818;SDS011;49970;54.976;73.248;2023-12-22T06:31:05;4.75;;;4.35;;
63818;SDS011;49970;54.976;73.248;2023-12-22T06:33:33;5.00;;;4.60;;
63818;SDS011;49970;54.976;73.248;2023-12-22T06:35:59;7.93;;;4.88;;
63818;SDS011;49970;54.976;73.248;2023-12-22T06:38:25;5.18;;;4.78;;
63818;SDS011;49970;54.976;73.248;2023-12-22T06:41:28;4.90;;;4.45;;
63818;SDS011;49970;54.976;73.248;2023-12-22T06:43:55;5.97;;;3.70;;
63818;SDS011;49970;54.976;73.248;2023-12-22T06:46:23;3.45;;;3.25;;
63818;SDS011;49970;54.976;73.248;2023-12-22T06:48:54;4.30;;;3.90;;
63818;SDS011;49970;54.976;73.248;2023-12-22T06:51:22;3.92;;;3.72;;
63818;SDS011;49970;54.976;73.248;2023-12-22T06:53:50;4.60;;;3.53;;
63818;SDS011;49970;54.976;73.248;2023-12-22T06:58:53;3.78;;;3.47;;
63818;SDS011;49970;54.976;73.248;2023-12-22T07:01:24;3.38;;;3.10;;
63818;SDS011;49970;54.976;73.248;2023-12-22T07:08:13;4.18;;;3.13;;
63818;SDS011;49970;54.976;73.248;2023-12-22T07:11:44;3.72;;;3.42;;
63818;SDS011;49970;54.976;73.248;2023-12-22T07:15:14;3.97;;;3.38;;
63818;SDS011;49970;54.976;73.248;2023-12-22T07:18:45;5.45;;;3.85;;
63818;SDS011;49970;54.976;73.248;2023-12-22T07:21:15;4.18;;;3.53;;
63818;SDS011;49970;54.976;73.248;2023-12-22T07:23:44;6.75;;;4.07;;
63818;SDS011;49970;54.976;73.248;2023-12-22T07:26:10;4.10;;;3.80;;
63818;SDS011;49970;54.976;73.248;2023-12-22T07:28:38;5.05;;;4.18;;
63818;SDS011;49970;54.976;73.248;2023-12-22T07:31:05;4.15;;;3.83;;
63818;SDS011;49970;54.976;73.248;2023-12-22T07:33:31;4.00;;;3.65;;
63818;SDS011;49970;54.976;73.248;2023-12-22T07:35:57;3.33;;;3.13;;
63818;SDS011;49970;54.976;73.248;2023-12-22T07:38:24;3.25;;;3.05;;
63818;SDS011;49970;54.976;73.248;2023-12-22T07:40:50;3.83;;;3.47;;
63818;SDS011;49970;54.976;73.248;2023-12-22T07:43:16;3.47;;;3.28;;
63818;SDS011;49970;54.976;73.248;2023-12-22T07:45:43;3.50;;;3.20;;
63818;SDS011;49970;54.976;73.248;2023-12-22T07:48:09;3.63;;;3.33;;
63818;SDS011;49970;54.976;73.248;2023-12-22T07:50:35;3.33;;;3.13;;
63818;SDS011;49970;54.976;73.248;2023-12-22T07:53:02;3.70;;;3.38;;
63818;SDS011;49970;54.976;73.248;2023-12-22T07:55:28;3.72;;;3.50;;
63818;SDS011;49970;54.976;73.248;2023-12-22T07:57:54;3.03;;;2.70;;
63818;SDS011;49970;54.976;73.248;2023-12-22T08:00:20;4.38;;;3.97;;
63818;SDS011;49970;54.976;73.248;2023-12-22T08:02:47;6.15;;;3.85;;
63818;SDS011;49970;54.976;73.248;2023-12-22T08:05:13;4.20;;;3.90;;
63818;SDS011;49970;54.976;73.248;2023-12-22T08:07:41;3.65;;;3.35;;
63818;SDS011;49970;54.976;73.248;2023-12-22T08:10:07;3.20;;;2.95;;
63818;SDS011;49970;54.976;73.248;2023-12-22T08:12:34;7.18;;;3.88;;
63818;SDS011;49970;54.976;73.248;2023-12-22T08:15:01;4.07;;;3.65;;
63818;SDS011;49970;54.976;73.248;2023-12-22T08:17:29;4.30;;;3.90;;
63818;SDS011;49970;54.976;73.248;2023-12-22T08:19:55;4.15;;;3.85;;
63818;SDS011;49970;54.976;73.248;2023-12-22T08:22:22;4.20;;;3.72;;
63818;SDS011;49970;54.976;73.248;2023-12-22T08:24:49;5.88;;;4.20;;
63818;SDS011;49970;54.976;73.248;2023-12-22T08:28:19;4.07;;;3.72;;
63818;SDS011;49970;54.976;73.248;2023-12-22T08:31:50;5.20;;;4.15;;
63818;SDS011;49970;54.976;73.248;2023-12-22T08:35:21;4.20;;;3.90;;
63818;SDS011;49970;54.976;73.248;2023-12-22T08:38:52;4.05;;;3.65;;
63818;SDS011;49970;54.976;73.248;2023-12-22T08:42:24;4.00;;;3.70;;
63818;SDS011;49970;54.976;73.248;2023-12-22T08:45:54;3.25;;;3.05;;
63818;SDS011;49970;54.976;73.248;2023-12-22T08:49:25;4.45;;;3.83;;
63818;SDS011;49970;54.976;73.248;2023-12-22T08:52:56;4.18;;;3.13;;
63818;SDS011;49970;54.976;73.248;2023-12-22T08:55:57;3.58;;;3.28;;
63818;SDS011;49970;54.976;73.248;2023-12-22T08:58:27;4.47;;;4.07;;
63818;SDS011;49970;54.976;73.248;2023-12-22T09:01:00;4.88;;;3.85;;
63818;SDS011;49970;54.976;73.248;2023-12-22T09:03:31;4.38;;;4.00;;
63818;SDS011;49970;54.976;73.248;2023-12-22T09:06:05;4.10;;;3.80;;
63818;SDS011;49970;54.976;73.248;2023-12-22T09:08:35;4.65;;;4.28;;
63818;SDS011;49970;54.976;73.248;2023-12-22T09:11:04;5.15;;;4.68;;
63818;SDS011;49970;54.976;73.248;2023-12-22T09:13:37;4.30;;;3.90;;
63818;SDS011;49970;54.976;73.248;2023-12-22T09:16:06;4.00;;;3.70;;
63818;SDS011;49970;54.976;73.248;2023-12-22T09:18:36;6.25;;;4.70;;
63818;SDS011;49970;54.976;73.248;2023-12-22T09:21:05;5.93;;;4.50;;
63818;SDS011;49970;54.976;73.248;2023-12-22T09:24:37;5.60;;;4.57;;
63818;SDS011;49970;54.976;73.248;2023-12-22T09:27:04;9.98;;;6.15;;
63818;SDS011;49970;54.976;73.248;2023-12-22T09:29:30;8.15;;;4.18;;
63818;SDS011;49970;54.976;73.248;2023-12-22T09:32:01;6.45;;;4.70;;
63818;SDS011;49970;54.976;73.248;2023-12-22T09:34:27;9.25;;;4.68;;
63818;SDS011;49970;54.976;73.248;2023-12-22T09:36:54;15.68;;;7.05;;
63818;SDS011;49970;54.976;73.248;2023-12-22T09:39:20;4.03;;;3.65;;
63818;SDS011;49970;54.976;73.248;2023-12-22T09:41:50;3.95;;;3.65;;
63818;SDS011;49970;54.976;73.248;2023-12-22T09:44:18;4.80;;;4.35;;
63818;SDS011;49970;54.976;73.248;2023-12-22T09:46:48;7.45;;;4.93;;
63818;SDS011;49970;54.976;73.248;2023-12-22T09:49:19;7.10;;;5.53;;
63818;SDS011;49970;54.976;73.248;2023-12-22T09:51:49;6.25;;;5.65;;
63818;SDS011;49970;54.976;73.248;2023-12-22T09:54:16;9.90;;;5.53;;
63818;SDS011;49970;54.976;73.248;2023-12-22T09:56:43;13.75;;;6.68;;
63818;SDS011;49970;54.976;73.248;2023-12-22T09:59:11;5.90;;;4.38;;
63818;SDS011;49970;54.976;73.248;2023-12-22T10:01:40;30.08;;;10.60;;
63818;SDS011;49970;54.976;73.248;2023-12-22T10:04:09;11.07;;;6.10;;
63818;SDS011;49970;54.976;73.248;2023-12-22T10:06:36;8.18;;;5.25;;
63818;SDS011;49970;54.976;73.248;2023-12-22T10:09:04;7.80;;;3.58;;
63818;SDS011;49970;54.976;73.248;2023-12-22T10:11:33;10.13;;;3.83;;
63818;SDS011;49970;54.976;73.248;2023-12-22T10:14:02;7.75;;;5.20;;
63818;SDS011;49970;54.976;73.248;2023-12-22T10:16:48;16.38;;;9.88;;
63818;SDS011;49970;54.976;73.248;2023-12-22T10:19:15;9.52;;;6.50;;
63818;SDS011;49970;54.976;73.248;2023-12-22T10:21:42;20.35;;;10.23;;
63818;SDS011;49970;54.976;73.248;2023-12-22T10:24:26;27.33;;;13.07;;
63818;SDS011;49970;54.976;73.248;2023-12-22T10:27:14;35.60;;;12.48;;
63818;SDS011;49970;54.976;73.248;2023-12-22T10:29:42;31.98;;;11.00;;
63818;SDS011;49970;54.976;73.248;2023-12-22T10:32:08;41.63;;;15.57;;
63818;SDS011;49970;54.976;73.248;2023-12-22T10:34:34;35.88;;;13.93;;
63818;SDS011;49970;54.976;73.248;2023-12-22T10:37:01;15.63;;;9.95;;
63818;SDS011;49970;54.976;73.248;2023-12-22T10:39:28;26.27;;;13.95;;
63818;SDS011;49970;54.976;73.248;2023-12-22T10:41:58;36.28;;;16.38;;
63818;SDS011;49970;54.976;73.248;2023-12-22T10:44:25;32.47;;;15.73;;
63818;SDS011;49970;54.976;73.248;2023-12-22T10:46:52;27.23;;;11.52;;
63818;SDS011;49970;54.976;73.248;2023-12-22T10:49:20;10.90;;;7.55;;
63818;SDS011;49970;54.976;73.248;2023-12-22T10:51:47;8.48;;;7.35;;
63818;SDS011;49970;54.976;73.248;2023-12-22T10:54:13;19.05;;;11.68;;
63818;SDS011;49970;54.976;73.248;2023-12-22T10:56:40;33.72;;;19.45;;
63818;SDS011;49970;54.976;73.248;2023-12-22T10:59:07;20.67;;;13.77;;
63818;SDS011;49970;54.976;73.248;2023-12-22T11:01:37;17.33;;;12.50;;
63818;SDS011;49970;54.976;73.248;2023-12-22T11:04:08;7.78;;;6.32;;
63818;SDS011;49970;54.976;73.248;2023-12-22T11:06:39;4.97;;;4.28;;
63818;SDS011;49970;54.976;73.248;2023-12-22T11:09:09;5.40;;;4.90;;
63818;SDS011;49970;54.976;73.248;2023-12-22T11:11:39;5.32;;;4.90;;
63818;SDS011;49970;54.976;73.248;2023-12-22T11:14:06;6.55;;;5.93;;
63818;SDS011;49970;54.976;73.248;2023-12-22T11:16:34;5.35;;;4.85;;
63818;SDS011;49970;54.976;73.248;2023-12-22T11:19:01;5.95;;;4.03;;
63818;SDS011;49970;54.976;73.248;2023-12-22T11:21:29;3.67;;;3.38;;
63818;SDS011;49970;54.976;73.248;2023-12-22T11:23:56;3.90;;;3.60;;
63818;SDS011;49970;54.976;73.248;2023-12-22T11:26:23;3.45;;;3.20;;
63818;SDS011;49970;54.976;73.248;2023-12-22T11:28:51;3.17;;;2.80;;
63818;SDS011;49970;54.976;73.248;2023-12-22T11:31:18;3.95;;;3.65;;
63818;SDS011;49970;54.976;73.248;2023-12-22T11:33:55;3.58;;;3.33;;
63818;SDS011;49970;54.976;73.248;2023-12-22T11:36:24;4.32;;;3.92;;
63818;SDS011;49970;54.976;73.248;2023-12-22T11:38:52;11.55;;;8.77;;
63818;SDS011;49970;54.976;73.248;2023-12-22T11:41:20;39.97;;;22.15;;
63818;SDS011;49970;54.976;73.248;2023-12-22T11:43:50;49.78;;;29.10;;
63818;SDS011;49970;54.976;73.248;2023-12-22T11:46:17;26.73;;;16.33;;
63818;SDS011;49970;54.976;73.248;2023-12-22T11:48:47;14.43;;;9.60;;
63818;SDS011;49970;54.976;73.248;2023-12-22T11:51:15;15.77;;;8.25;;
63818;SDS011;49970;54.976;73.248;2023-12-22T11:53:42;7.90;;;7.10;;
63818;SDS011;49970;54.976;73.248;2023-12-22T11:56:10;9.25;;;6.80;;
63818;SDS011;49970;54.976;73.248;2023-12-22T12:02:53;7.40;;;5.68;;
63818;SDS011;49970;54.976;73.248;2023-12-22T12:05:20;6.38;;;4.88;;
63818;SDS011;49970;54.976;73.248;2023-12-22T12:07:49;6.03;;;5.38;;
63818;SDS011;49970;54.976;73.248;2023-12-22T12:13:10;4.95;;;4.55;;
63818;SDS011;49970;54.976;73.248;2023-12-22T12:15:41;7.85;;;5.45;;
63818;SDS011;49970;54.976;73.248;2023-12-22T12:18:08;7.22;;;5.38;;
63818;SDS011;49970;54.976;73.248;2023-12-22T12:20:46;12.20;;;7.55;;
63818;SDS011;49970;54.976;73.248;2023-12-22T12:23:12;12.15;;;8.57;;
63818;SDS011;49970;54.976;73.248;2023-12-22T12:25:46;13.43;;;8.35;;
63818;SDS011;49970;54.976;73.248;2023-12-22T12:28:13;9.50;;;6.40;;
63818;SDS011;49970;54.976;73.248;2023-12-22T12:30:43;8.98;;;6.60;;
63818;SDS011;49970;54.976;73.248;2023-12-22T12:33:12;9.18;;;5.78;;
63818;SDS011;49970;54.976;73.248;2023-12-22T12:35:39;6.32;;;5.45;;
63818;SDS011;49970;54.976;73.248;2023-12-22T12:38:45;7.72;;;4.93;;
63818;SDS011;49970;54.976;73.248;2023-12-22T12:41:39;6.30;;;5.30;;
63818;SDS011;49970;54.976;73.248;2023-12-22T12:45:06;7.05;;;5.90;;
63818;SDS011;49970;54.976;73.248;2023-12-22T12:48:36;12.68;;;6.80;;
63818;SDS011;49970;54.976;73.248;2023-12-22T12:51:06;8.57;;;5.82;;
63818;SDS011;49970;54.976;73.248;2023-12-22T12:53:40;13.13;;;8.73;;
63818;SDS011;49970;54.976;73.248;2023-12-22T12:56:06;14.93;;;9.90;;
63818;SDS011;49970;54.976;73.248;2023-12-22T12:58:43;22.90;;;13.55;;
63818;SDS011;49970;54.976;73.248;2023-12-22T13:01:10;26.63;;;16.08;;
63818;SDS011;49970;54.976;73.248;2023-12-22T13:03:52;30.23;;;17.20;;
63818;SDS011;49970;54.976;73.248;2023-12-22T13:06:22;35.67;;;18.67;;
63818;SDS011;49970;54.976;73.248;2023-12-22T13:08:48;34.55;;;19.30;;
63818;SDS011;49970;54.976;73.248;2023-12-22T13:11:21;34.38;;;19.65;;
63818;SDS011;49970;54.976;73.248;2023-12-22T13:13:49;36.75;;;19.35;;
63818;SDS011;49970;54.976;73.248;2023-12-22T13:16:23;31.08;;;17.50;;
63818;SDS011;49970;54.976;73.248;2023-12-22T13:18:59;32.55;;;17.17;;
63818;SDS011;49970;54.976;73.248;2023-12-22T13:21:27;21.30;;;13.32;;
63818;SDS011;49970;54.976;73.248;2023-12-22T13:24:14;19.10;;;11.02;;
63818;SDS011;49970;54.976;73.248;2023-12-22T13:26:41;15.68;;;11.07;;
63818;SDS011;49970;54.976;73.248;2023-12-22T13:29:09;13.73;;;10.35;;
63818;SDS011;49970;54.976;73.248;2023-12-22T13:31:37;15.38;;;8.80;;
63818;SDS011;49970;54.976;73.248;2023-12-22T13:34:10;13.55;;;10.23;;
63818;SDS011;49970;54.976;73.248;2023-12-22T13:36:37;14.15;;;9.55;;
63818;SDS011;49970;54.976;73.248;2023-12-22T13:39:05;16.92;;;9.98;;
63818;SDS011;49970;54.976;73.248;2023-12-22T13:41:35;11.90;;;8.70;;
63818;SDS011;49970;54.976;73.248;2023-12-22T13:44:06;14.07;;;8.35;;
63818;SDS011;49970;54.976;73.248;2023-12-22T13:46:32;10.85;;;8.18;;
63818;SDS011;49970;54.976;73.248;2023-12-22T13:49:01;9.68;;;7.82;;
63818;SDS011;49970;54.976;73.248;2023-12-22T13:51:38;12.55;;;7.32;;
63818;SDS011;49970;54.976;73.248;2023-12-22T13:54:06;11.23;;;7.40;;
63818;SDS011;49970;54.976;73.248;2023-12-22T13:56:34;10.38;;;6.68;;
63818;SDS011;49970;54.976;73.248;2023-12-22T13:59:01;10.48;;;7.00;;
63818;SDS011;49970;54.976;73.248;2023-12-22T14:01:27;8.55;;;6.13;;
63818;SDS011;49970;54.976;73.248;2023-12-22T14:03:53;8.05;;;6.43;;
63818;SDS011;49970;54.976;73.248;2023-12-22T14:06:21;9.48;;;7.00;;
63818;SDS011;49970;54.976;73.248;2023-12-22T14:08:47;13.30;;;8.23;;
63818;SDS011;49970;54.976;73.248;2023-12-22T14:11:13;11.27;;;7.82;;
63818;SDS011;49970;54.976;73.248;2023-12-22T14:13:39;12.35;;;8.10;;
63818;SDS011;49970;54.976;73.248;2023-12-22T14:16:06;10.07;;;7.20;;
63818;SDS011;49970;54.976;73.248;2023-12-22T14:18:33;9.65;;;7.07;;
63818;SDS011;49970;54.976;73.248;2023-12-22T14:20:59;10.60;;;7.68;;
63818;SDS011;49970;54.976;73.248;2023-12-22T14:23:26;10.90;;;7.47;;
63818;SDS011;49970;54.976;73.248;2023-12-22T14:25:53;12.77;;;7.75;;
63818;SDS011;49970;54.976;73.248;2023-12-22T14:28:19;8.80;;;6.55;;
63818;SDS011;49970;54.976;73.248;2023-12-22T14:30:46;9.65;;;7.00;;
63818;SDS011;49970;54.976;73.248;2023-12-22T14:33:12;13.55;;;7.63;;
63818;SDS011;49970;54.976;73.248;2023-12-22T14:35:39;10.70;;;7.63;;
63818;SDS011;49970;54.976;73.248;2023-12-22T14:38:05;12.88;;;7.68;;
63818;SDS011;49970;54.976;73.248;2023-12-22T14:40:31;9.35;;;6.88;;
63818;SDS011;49970;54.976;73.248;2023-12-22T14:42:58;16.73;;;8.55;;
63818;SDS011;49970;54.976;73.248;2023-12-22T14:45:25;13.55;;;6.97;;
63818;SDS011;49970;54.976;73.248;2023-12-22T14:47:51;9.35;;;6.10;;
63818;SDS011;49970;54.976;73.248;2023-12-22T14:50:19;8.18;;;5.88;;
63818;SDS011;49970;54.976;73.248;2023-12-22T14:52:45;9.02;;;5.28;;
63818;SDS011;49970;54.976;73.248;2023-12-22T14:55:11;9.02;;;5.15;;
63818;SDS011;49970;54.976;73.248;2023-12-22T14:57:38;6.78;;;5.25;;
63818;SDS011;49970;54.976;73.248;2023-12-22T15:00:05;6.88;;;5.25;;
63818;SDS011;49970;54.976;73.248;2023-12-22T15:02:31;3.65;;;3.35;;
63818;SDS011;49970;54.976;73.248;2023-12-22T15:04:58;5.05;;;4.03;;
63818;SDS011;49970;54.976;73.248;2023-12-22T15:07:24;6.25;;;4.07;;